• Join FlightAware (Why Join?)
  • Login
  • US Flag 
12:45AM EDT


 

Airport Tracker/Info


-or-


 

Live Flight TrackerFlight Track Log ✈ CTL17 ✈ 19-Jun-2013 ✈ KBKL - KPTK

Flight Track Log - Related Links

Times and Time Zones

All times are in EDT time to prevent confusion due to time zone crossing. See the CTL17 flight status page for this flight to view local times or setup timezone preferences in your user account.

Time Position Orientation Groundspeed Altitude Reporting Facility
EDT Latitude Longitude Course Direction KTS MPH feet Rate Location/Type
06:54PM 41.5792 -81.6989 347° North 145 167 2,200  Level Cleveland Center
06:55PM 41.6122 -81.7328 323° Northwest 159 183 3,000 540 Climbing Cleveland Center
06:56PM 41.6283 -81.7914 290° West 162 186 3,400 480 Climbing Cleveland Center
06:57PM 41.6444 -81.8503 290° West 165 190 4,000 480 Climbing Cleveland Center
06:58PM 41.6606 -81.9061 291° West 163 188 4,400 420 Climbing Cleveland Center
06:59PM 41.6764 -81.9647 290° West 156 180 5,000 480 Climbing Cleveland Center
07:00PM 41.6903 -82.0208 288° West 156 180 5,500 480 Climbing Cleveland Center
07:01PM 41.7022 -82.0683 289° West 157 181 6,000 240 Climbing Cleveland Center
07:02PM 41.7203 -82.1328 291° West 173 199 6,000  Level Cleveland Center
07:03PM 41.7339 -82.1914 287° West 168 193 6,000  Level Cleveland Center
07:04PM 41.7497 -82.2503 290° West 167 192 6,000  Level Cleveland Center
07:05PM 41.7656 -82.3092 298° West 167 192 6,000  Level Cleveland Center
07:06PM 41.7814 -82.3653 291° West 164 189 6,000  Level Cleveland Center
07:07PM 41.7953 -82.4075 294° West 167 192 6,000  Level Cleveland Center
07:08PM 41.8089 -82.4664 287° West 167 192 6,000  Level Cleveland Center
07:09PM 41.8225 -82.5253 287° West 167 192 6,000  Level Cleveland Center
07:10PM 41.8319 -82.5869 282° West 169 194 6,000  Level Cleveland Center
07:11PM 41.8539 -82.6461 296° West 174 200 6,000 -120 Level Cleveland Center
07:12PM 41.8950 -82.6753 332° Northwest 169 194 5,800 -360 Descending Cleveland Center
07:13PM 41.9447 -82.6964 342° North 182 209 5,300 -420 Descending Cleveland Center
07:14PM 41.9922 -82.7147 344° North 182 209 5,000 -180 Descending Cleveland Center
07:15PM 42.0378 -82.7358 341° North 170 196 5,000  Level Cleveland Center
07:16PM 42.0831 -82.7625 336° Northwest 170 196 5,000  Level Cleveland Center
07:17PM 42.1286 -82.7808 343° North 172 198 5,000  Level Cleveland Center
07:18PM 42.1761 -82.8022 342° North 168 193 5,000  Level Cleveland Center
07:19PM 42.2217 -82.8178 346° North 168 193 5,000  Level Cleveland Center
07:20PM 42.2694 -82.8281 351° North 161 185 5,000  Level Cleveland Center
07:21PM 42.3150 -82.8381 351° North 160 184 5,000  Level Cleveland Center
07:22PM 42.3564 -82.8619 337° Northwest 159 183 5,000  Level Cleveland Center
07:23PM 42.3953 -82.8914 331° Northwest 159 183 5,000 -120 Level Cleveland Center
07:24PM 42.4364 -82.9211 332° Northwest 162 186 4,800 -540 Descending Cleveland Center
07:25PM 42.4772 -82.9647 322° Northwest 189 217 4,000 -420 Descending Cleveland Center
07:26PM 42.5139 -83.0086 319° Northwest 173 199 4,000 -60 Level Cleveland Center
07:27PM 42.5547 -83.0467 326° Northwest 167 192 3,900  Descending Cleveland Center
07:28PM 42.5722 -83.1039 293° West 166 191 4,000  Climbing Cleveland Center
07:29PM 42.5917 -83.1639 294° West 167 192 4,000 -60 Level Cleveland Center
07:30PM 42.6092 -83.2181 294° West 168 193 3,900 -420 Descending Cleveland Center
07:31PM 42.6097 -83.2858 271° West 187 215 3,200 -480 Descending Cleveland Center
07:32PM 42.6083 -83.3450 268° West 180 207 3,000 -420 Descending Cleveland Center
07:33PM 42.6069 -83.4100 268° West 179 206 2,400 -540 Descending Cleveland Center
07:34PM 42.6242 -83.4644 293° West 152 175 2,000 -480 Descending Cleveland Center
07:35PM 42.6619 -83.4603 North 118 136 1,500 -540 Descending Cleveland Center
07:37PM 42.6656 -83.4205 83° East  Level Estimated
07:44PM 42.6656 -83.4205 140° Southeast  Level Estimated
07:45PM 42.6656 -83.4205 140° Southeast  Level Estimated